Time;durP1;ratioP1;P1;durP2;ratioP2;P2;SDS_P1;SDS_P2;PMS_P1;PMS_P2;Temp;Humidity;BMP_temperature;BMP_pressure;BME280_temperature;BME280_humidity;BME280_pressure;Samples;Min_cycle;Max_cycle;Signal;HPM_P1;HPM_P2
2022/07/21 00:00:12;;;;;;;2.15;0.80;;;21.30;99.90;;;;;;4162314;28;20613;-80
2022/07/21 00:02:32;;;;;;;0.80;0.80;;;21.20;99.90;;;;;;4161018;28;20060;-80
2022/07/21 00:04:53;;;;;;;1.02;0.80;;;20.80;99.90;;;;;;4161337;28;20059;-80
2022/07/21 00:07:14;;;;;;;0.77;0.70;;;20.70;99.90;;;;;;4147301;28;20060;-80
2022/07/21 00:09:35;;;;;;;0.70;0.70;;;20.50;99.90;;;;;;4162518;28;20057;-80
2022/07/21 00:11:55;;;;;;;2.38;0.90;;;20.50;99.90;;;;;;4147398;28;20496;-80
2022/07/21 00:14:17;;;;;;;1.80;0.80;;;20.40;99.90;;;;;;4147403;28;20164;-80
2022/07/21 00:16:39;;;;;;;1.27;0.73;;;20.50;99.90;;;;;;4162224;28;20049;-80
2022/07/21 00:19:00;;;;;;;2.15;0.85;;;20.70;99.90;;;;;;4162038;28;20428;-80
2022/07/21 00:21:20;;;;;;;1.95;0.90;;;20.70;99.90;;;;;;4162438;28;20095;-80
2022/07/21 00:23:41;;;;;;;0.80;0.80;;;20.90;99.90;;;;;;4161913;28;20084;-80
2022/07/21 00:26:02;;;;;;;1.58;1.45;;;21.00;99.90;;;;;;4146954;28;20045;-80
2022/07/21 00:28:23;;;;;;;0.90;0.88;;;21.10;99.90;;;;;;4146813;28;20516;-80
2022/07/21 00:30:44;;;;;;;0.98;0.73;;;20.80;99.90;;;;;;4145689;28;20129;-80
2022/07/21 00:33:05;;;;;;;5.88;0.90;;;20.50;99.90;;;;;;4157014;28;20048;-80
2022/07/21 00:35:26;;;;;;;4.10;0.70;;;20.50;99.90;;;;;;4161743;28;20566;-80
2022/07/21 00:37:46;;;;;;;2.17;0.80;;;20.50;99.90;;;;;;4147224;28;20444;-80
2022/07/21 00:40:08;;;;;;;2.47;0.82;;;20.50;99.90;;;;;;4145563;28;20516;-80
2022/07/21 00:42:31;;;;;;;2.25;0.80;;;20.60;99.90;;;;;;4155856;28;20107;-80
2022/07/21 00:44:53;;;;;;;2.08;0.80;;;20.60;99.90;;;;;;4146983;28;20126;-80
2022/07/21 00:47:13;;;;;;;0.70;0.70;;;20.60;99.90;;;;;;4161356;28;20080;-80
2022/07/21 00:49:34;;;;;;;1.48;0.93;;;20.30;99.90;;;;;;4146718;28;20049;-80
2022/07/21 00:51:55;;;;;;;1.00;0.80;;;20.30;99.90;;;;;;4161865;28;20055;-80
2022/07/21 00:54:18;;;;;;;0.70;0.70;;;20.30;99.90;;;;;;4161735;28;20072;-80
2022/07/21 00:56:39;;;;;;;1.08;1.00;;;20.40;99.90;;;;;;4146838;28;20107;-80
2022/07/21 00:59:01;;;;;;;1.25;1.15;;;20.40;99.90;;;;;;4145752;28;20052;-80
2022/07/21 01:01:22;;;;;;;1.10;1.00;;;20.20;99.90;;;;;;4138400;28;20543;-80
2022/07/21 01:03:43;;;;;;;1.42;1.33;;;20.10;99.90;;;;;;4161529;28;20068;-80
2022/07/21 01:06:04;;;;;;;6.88;1.00;;;19.90;99.90;;;;;;4146497;28;20045;-80
2022/07/21 01:08:27;;;;;;;2.35;1.00;;;19.80;99.90;;;;;;4146406;28;20109;-80
2022/07/21 01:10:48;;;;;;;;;;;19.80;99.90;;;;;;4147409;28;20052;-80
2022/07/21 01:13:09;;;;;;;0.70;0.70;;;19.70;99.90;;;;;;4177570;28;19928;-80
2022/07/21 01:15:29;;;;;;;1.80;1.02;;;19.70;99.90;;;;;;4161588;28;20133;-80
2022/07/21 01:17:51;;;;;;;2.53;0.73;;;19.60;99.90;;;;;;4160641;28;20043;-80
2022/07/21 01:20:15;;;;;;;1.77;1.10;;;19.50;99.90;;;;;;4146353;28;20517;-80
2022/07/21 01:22:38;;;;;;;0.80;0.80;;;19.40;99.90;;;;;;4161036;28;20149;-80
2022/07/21 01:24:59;;;;;;;1.00;1.00;;;19.40;99.90;;;;;;4129747;28;20045;-80
2022/07/21 01:27:23;;;;;;;0.88;0.88;;;19.40;99.90;;;;;;4141194;28;20594;-80
2022/07/21 01:29:43;;;;;;;0.80;0.80;;;19.40;99.90;;;;;;4145744;28;20203;-80
2022/07/21 01:32:04;;;;;;;2.05;0.90;;;19.30;99.90;;;;;;4145458;28;20057;-80
2022/07/21 01:34:25;;;;;;;1.02;0.93;;;19.40;99.90;;;;;;4129277;28;20105;-80
2022/07/21 01:36:46;;;;;;;1.15;0.90;;;19.50;99.90;;;;;;4145751;28;20122;-80
2022/07/21 01:41:46;;;;;;;4.35;1.40;;;19.50;99.90;;;;;;4160670;28;20087;-80
2022/07/21 01:44:09;;;;;;;1.00;1.00;;;19.40;99.90;;;;;;4139811;28;20108;-80
2022/07/21 01:46:33;;;;;;;1.33;0.90;;;19.40;99.90;;;;;;4160232;28;20115;-80
2022/07/21 01:48:54;;;;;;;0.90;0.90;;;19.40;99.90;;;;;;4160224;28;20089;-80
2022/07/21 01:51:15;;;;;;;0.88;0.88;;;19.50;99.90;;;;;;4144059;28;20064;-80
2022/07/21 01:53:36;;;;;;;1.88;1.13;;;19.30;99.90;;;;;;4115811;28;20058;-80
2022/07/21 01:55:57;;;;;;;0.95;0.95;;;19.40;99.90;;;;;;4154829;28;20052;-80
2022/07/21 01:58:18;;;;;;;1.00;1.00;;;19.20;99.90;;;;;;4159820;28;20056;-80
2022/07/21 02:00:39;;;;;;;0.90;0.90;;;19.10;99.90;;;;;;4159975;28;20060;-80
2022/07/21 02:03:00;;;;;;;1.88;1.00;;;19.10;99.90;;;;;;4128762;28;20057;-80
2022/07/21 02:05:21;;;;;;;1.83;0.90;;;19.30;99.90;;;;;;4138351;28;20125;-80
2022/07/21 02:07:41;;;;;;;1.45;0.90;;;19.10;99.90;;;;;;4159829;28;20135;-80
2022/07/21 02:10:02;;;;;;;1.23;0.80;;;19.20;99.90;;;;;;4145305;28;20057;-80
2022/07/21 02:12:23;;;;;;;1.13;1.00;;;19.30;99.90;;;;;;4162532;28;20124;-80
2022/07/21 02:14:44;;;;;;;0.80;0.80;;;19.30;99.90;;;;;;4158637;28;20491;-80
2022/07/21 02:17:04;;;;;;;1.60;1.50;;;19.10;99.90;;;;;;4159660;28;20123;-80
2022/07/21 02:19:25;;;;;;;0.85;0.80;;;19.10;99.90;;;;;;4159955;28;20064;-80
2022/07/21 02:21:48;;;;;;;1.48;0.90;;;19.10;99.90;;;;;;4145166;28;20071;-80
2022/07/21 02:24:08;;;;;;;0.80;0.80;;;19.00;99.90;;;;;;4104300;28;1266144;-80
2022/07/21 02:26:29;;;;;;;2.25;1.00;;;18.90;99.90;;;;;;4163809;28;20095;-80
2022/07/21 02:28:50;;;;;;;3.97;0.90;;;19.00;99.90;;;;;;4163749;28;20112;-80
2022/07/21 02:31:11;;;;;;;0.85;0.85;;;18.70;99.90;;;;;;4163901;28;20052;-80
2022/07/21 02:33:32;;;;;;;1.33;1.00;;;18.60;99.90;;;;;;4164031;28;20397;-80
2022/07/21 02:35:53;;;;;;;1.15;1.08;;;18.50;99.90;;;;;;4163821;28;20060;-80
2022/07/21 02:38:14;;;;;;;2.42;1.10;;;18.60;99.90;;;;;;4149092;28;20445;-80
2022/07/21 02:40:35;;;;;;;1.50;0.90;;;18.60;99.90;;;;;;4148575;28;20065;-80
2022/07/21 02:42:56;;;;;;;1.90;0.93;;;18.50;99.90;;;;;;4163779;28;20432;-80
2022/07/21 02:45:16;;;;;;;1.10;1.00;;;18.50;99.90;;;;;;4164012;28;20060;-80
2022/07/21 02:47:57;;;;;;;3.38;1.00;;;18.60;99.90;;;;;;4163413;28;20048;-80
2022/07/21 02:50:19;;;;;;;1.00;1.00;;;18.60;99.90;;;;;;4148432;28;20808;-80
2022/07/21 02:52:40;;;;;;;1.80;1.10;;;18.50;99.90;;;;;;4163247;28;20528;-80
2022/07/21 02:55:03;;;;;;;2.70;1.00;;;18.40;99.90;;;;;;4163639;28;20701;-80
2022/07/21 02:57:23;;;;;;;2.13;1.00;;;18.40;99.90;;;;;;4148628;28;20080;-80
2022/07/21 02:59:44;;;;;;;1.90;1.00;;;18.20;99.90;;;;;;4163479;28;20064;-80
2022/07/21 03:02:05;;;;;;;1.70;1.17;;;18.10;99.90;;;;;;4163799;28;20143;-80
2022/07/21 03:04:25;;;;;;;2.05;0.90;;;18.30;99.90;;;;;;4163432;28;20405;-80
2022/07/21 03:06:46;;;;;;;2.20;1.00;;;18.40;99.90;;;;;;4163178;28;20057;-80
2022/07/21 03:09:07;;;;;;;1.58;1.48;;;18.50;99.90;;;;;;4132216;28;20695;-80
2022/07/21 03:11:27;;;;;;;1.10;1.10;;;18.40;99.90;;;;;;4165505;28;20507;-80
2022/07/21 03:13:48;;;;;;;2.30;1.00;;;18.50;99.90;;;;;;4159591;28;20112;-80
2022/07/21 03:16:09;;;;;;;2.13;1.00;;;18.40;99.90;;;;;;4148533;28;20148;-80
2022/07/21 03:18:30;;;;;;;1.00;1.00;;;18.20;99.90;;;;;;4132074;28;20081;-80
2022/07/21 03:20:51;;;;;;;1.45;1.10;;;18.20;99.90;;;;;;4142275;28;20100;-80
2022/07/21 03:23:12;;;;;;;1.73;0.90;;;18.10;99.90;;;;;;4162892;28;20255;-80
2022/07/21 03:25:33;;;;;;;1.17;1.02;;;18.10;99.90;;;;;;4162714;28;20525;-80
2022/07/21 03:27:54;;;;;;;1.55;0.90;;;18.20;99.90;;;;;;4162881;28;20053;-80
2022/07/21 03:30:16;;;;;;;2.25;1.83;;;18.10;99.90;;;;;;4163279;28;20111;-80
2022/07/21 03:32:37;;;;;;;1.23;1.13;;;18.00;99.90;;;;;;4163285;28;20103;-80
2022/07/21 03:34:57;;;;;;;1.00;1.00;;;18.00;99.90;;;;;;4162493;28;20523;-80
2022/07/21 03:37:18;;;;;;;1.27;1.27;;;18.00;99.90;;;;;;4148144;28;20085;-80
2022/07/21 03:39:38;;;;;;;1.00;1.00;;;17.80;99.90;;;;;;4162488;28;20063;-80
2022/07/21 03:41:59;;;;;;;1.00;1.00;;;17.70;99.90;;;;;;4162699;28;20060;-80
2022/07/21 03:44:20;;;;;;;1.60;1.00;;;17.80;99.90;;;;;;4148087;28;20053;-80
2022/07/21 03:46:40;;;;;;;2.17;1.38;;;17.90;99.90;;;;;;4148024;28;20045;-80
2022/07/21 03:49:01;;;;;;;2.20;1.05;;;17.90;99.90;;;;;;4162524;28;20124;-80
2022/07/21 03:51:22;;;;;;;1.23;1.10;;;17.90;99.90;;;;;;4146514;28;20060;-80
2022/07/21 03:53:43;;;;;;;1.00;1.00;;;17.80;99.90;;;;;;4131690;28;20052;-80
2022/07/21 03:56:04;;;;;;;1.02;1.02;;;17.70;99.90;;;;;;4145141;28;20161;-80
2022/07/21 03:58:24;;;;;;;1.75;0.93;;;17.70;99.90;;;;;;4146255;28;20061;-80
2022/07/21 04:00:45;;;;;;;1.20;1.10;;;17.90;99.90;;;;;;4145239;28;20560;-80
2022/07/21 04:03:07;;;;;;;1.02;1.00;;;18.00;99.90;;;;;;4137070;28;20056;-79
2022/07/21 04:05:29;;;;;;;0.90;0.90;;;18.00;99.90;;;;;;4131264;28;20124;-80
2022/07/21 04:07:51;;;;;;;3.53;1.05;;;17.90;99.90;;;;;;4148023;28;20057;-80
2022/07/21 04:10:14;;;;;;;1.00;1.00;;;17.80;99.90;;;;;;4162178;28;20044;-80
2022/07/21 04:12:36;;;;;;;3.13;1.02;;;17.80;99.90;;;;;;4177864;28;20107;-80
2022/07/21 04:14:56;;;;;;;3.72;1.60;;;17.80;99.90;;;;;;4163629;28;20476;-80
2022/07/21 04:17:17;;;;;;;2.10;1.20;;;17.70;99.90;;;;;;4165930;28;20136;-80
2022/07/21 04:19:37;;;;;;;1.92;1.50;;;17.70;99.90;;;;;;4161557;28;20121;-80
2022/07/21 04:21:58;;;;;;;1.75;1.20;;;17.70;99.90;;;;;;4131323;28;20112;-80
2022/07/21 04:24:19;;;;;;;1.77;1.13;;;17.80;99.90;;;;;;4145962;28;20155;-80
2022/07/21 04:26:39;;;;;;;1.45;1.10;;;17.80;99.90;;;;;;4141122;28;20080;-80
2022/07/21 04:29:00;;;;;;;1.30;1.30;;;17.70;99.90;;;;;;4162223;28;20129;-80
2022/07/21 04:31:21;;;;;;;1.83;1.40;;;17.70;99.90;;;;;;4161988;28;20096;-80
2022/07/21 04:33:41;;;;;;;1.42;1.42;;;17.80;99.90;;;;;;4147081;28;20085;-80
2022/07/21 04:36:02;;;;;;;1.40;1.30;;;17.90;99.90;;;;;;4147022;28;20101;-80
2022/07/21 04:38:23;;;;;;;1.58;1.48;;;17.80;99.90;;;;;;4146931;28;20449;-80
2022/07/21 04:40:43;;;;;;;3.63;1.17;;;17.70;99.90;;;;;;4162081;28;20524;-80
2022/07/21 04:43:04;;;;;;;2.67;1.40;;;17.70;99.90;;;;;;4146770;28;20048;-81
2022/07/21 04:45:25;;;;;;;2.35;1.15;;;17.80;99.90;;;;;;4160776;28;20468;-80
2022/07/21 04:47:54;;;;;;;2.97;1.50;;;17.90;99.90;;;;;;4161207;28;20099;-81
2022/07/21 04:50:16;;;;;;;1.42;1.38;;;17.70;99.90;;;;;;4161904;28;20193;-81
2022/07/21 04:52:36;;;;;;;1.30;1.20;;;17.60;99.90;;;;;;4161145;28;20060;-81
2022/07/21 04:54:57;;;;;;;1.08;1.00;;;17.80;99.90;;;;;;4161607;28;20076;-80
2022/07/21 04:57:17;;;;;;;1.60;1.50;;;17.90;99.90;;;;;;4161397;28;20059;-80
2022/07/21 04:59:38;;;;;;;1.10;1.00;;;17.90;99.90;;;;;;4155229;28;20425;-80
2022/07/21 05:02:00;;;;;;;1.20;1.20;;;17.90;99.90;;;;;;4161300;28;20092;-81
2022/07/21 05:04:20;;;;;;;2.22;1.30;;;17.80;99.90;;;;;;4161561;28;20761;-81
2022/07/21 05:06:41;;;;;;;1.40;1.30;;;17.80;99.90;;;;;;4146696;28;20081;-81
2022/07/21 05:09:02;;;;;;;3.53;1.40;;;17.80;99.90;;;;;;4146506;28;20056;-81
2022/07/21 05:11:23;;;;;;;1.10;1.00;;;17.90;99.90;;;;;;4146480;28;20489;-81
2022/07/21 05:13:44;;;;;;;2.00;1.90;;;17.90;99.90;;;;;;4161119;28;20107;-81
2022/07/21 05:16:05;;;;;;;2.65;2.05;;;17.80;99.90;;;;;;4146573;28;20080;-81
2022/07/21 05:18:25;;;;;;;1.73;1.48;;;17.90;99.90;;;;;;4160518;28;20140;-81
2022/07/21 05:20:46;;;;;;;2.58;1.35;;;18.00;99.90;;;;;;4161317;28;20060;-81
2022/07/21 05:23:08;;;;;;;1.55;1.40;;;18.10;99.90;;;;;;4146369;28;20642;-81
2022/07/21 05:25:29;;;;;;;4.32;1.40;;;18.20;99.90;;;;;;4161324;28;20075;-83
2022/07/21 05:27:49;;;;;;;1.70;1.60;;;18.20;99.90;;;;;;4145503;28;20102;-82
2022/07/21 05:30:11;;;;;;;6.05;1.30;;;18.20;99.90;;;;;;4160978;28;20046;-83
2022/07/21 05:32:32;;;;;;;2.28;1.40;;;18.30;99.90;;;;;;4146268;28;20056;-83
2022/07/21 05:34:52;;;;;;;2.47;1.33;;;18.30;99.90;;;;;;4146146;28;20064;-83
2022/07/21 05:37:13;;;;;;;1.88;1.20;;;18.30;99.90;;;;;;4161249;28;20583;-83
2022/07/21 05:39:34;;;;;;;1.17;1.08;;;18.30;99.90;;;;;;4161240;28;20099;-83
2022/07/21 05:41:55;;;;;;;1.98;1.30;;;18.40;99.90;;;;;;4145972;28;20052;-83
2022/07/21 05:44:16;;;;;;;1.57;1.47;;;18.40;99.90;;;;;;4142489;28;20060;-83
2022/07/21 05:46:37;;;;;;;1.75;1.30;;;18.50;99.90;;;;;;4160979;28;20060;-83
2022/07/21 05:48:57;;;;;;;3.83;1.83;;;18.60;99.90;;;;;;4160985;28;20049;-83
2022/07/21 05:51:18;;;;;;;1.50;1.10;;;18.70;99.90;;;;;;4144432;28;20413;-84
2022/07/21 05:53:39;;;;;;;2.88;1.42;;;18.90;99.90;;;;;;4144543;28;20052;-83
2022/07/21 05:55:59;;;;;;;3.28;1.40;;;19.10;99.90;;;;;;4139806;28;20469;-84
2022/07/21 05:58:24;;;;;;;2.38;1.10;;;19.10;99.90;;;;;;4145243;28;20117;-84
2022/07/21 06:01:07;;;;;;;1.33;1.33;;;19.20;99.90;;;;;;4161311;28;20107;-84
2022/07/21 06:03:26;;;;;;;6.93;1.98;;;19.50;99.90;;;;;;4160969;28;20164;-84
2022/07/21 06:05:46;;;;;;;1.50;1.40;;;19.80;99.90;;;;;;4146134;28;20588;-84
2022/07/21 06:08:07;;;;;;;1.92;1.83;;;19.80;99.90;;;;;;4160734;28;20128;-84
2022/07/21 06:10:28;;;;;;;1.58;1.48;;;19.90;99.90;;;;;;4146578;28;20153;-84
2022/07/21 06:12:49;;;;;;;3.17;1.63;;;20.00;99.90;;;;;;4144679;28;20050;-84
2022/07/21 06:15:10;;;;;;;3.00;1.65;;;20.30;99.90;;;;;;4140352;28;20052;-84
2022/07/21 06:17:32;;;;;;;5.47;2.58;;;20.30;99.90;;;;;;4145851;28;20052;-84
2022/07/21 06:19:53;;;;;;;2.63;2.45;;;20.40;99.90;;;;;;4146228;28;20264;-84
2022/07/21 06:22:14;;;;;;;3.55;3.25;;;20.70;99.90;;;;;;4145999;28;20132;-84
2022/07/21 06:24:34;;;;;;;2.80;2.63;;;20.70;99.90;;;;;;4145400;28;20104;-84
2022/07/21 06:26:55;;;;;;;2.80;2.33;;;20.90;99.90;;;;;;4145907;28;20724;-84
2022/07/21 06:29:23;;;;;;;3.15;2.95;;;20.90;99.90;;;;;;4147220;28;20045;-84
2022/07/21 06:31:44;;;;;;;4.20;3.80;;;20.90;99.90;;;;;;4145993;28;20052;-84
2022/07/21 06:34:05;;;;;;;3.47;2.85;;;21.00;99.90;;;;;;4145782;28;20174;-84
2022/07/21 06:36:27;;;;;;;4.40;2.22;;;21.10;99.90;;;;;;4160973;28;20748;-84
2022/07/21 06:38:47;;;;;;;2.45;2.00;;;21.20;99.90;;;;;;4145962;28;20056;-84
2022/07/21 06:41:08;;;;;;;2.72;1.85;;;21.50;99.90;;;;;;4146182;28;20044;-84
2022/07/21 06:43:29;;;;;;;1.73;1.70;;;21.80;99.90;;;;;;4160649;28;20095;-84
2022/07/21 06:45:50;;;;;;;1.92;1.83;;;21.70;99.90;;;;;;4145753;28;20057;-84
2022/07/21 06:48:12;;;;;;;3.17;1.45;;;21.80;99.90;;;;;;4160667;28;20129;-85
2022/07/21 06:50:34;;;;;;;1.95;1.80;;;22.00;99.90;;;;;;4160920;28;20451;-85
2022/07/21 06:52:56;;;;;;;2.28;1.88;;;22.40;99.90;;;;;;4145705;28;20060;-85
2022/07/21 06:55:18;;;;;;;2.23;2.10;;;22.70;99.90;;;;;;4145851;28;20076;-85
2022/07/21 06:57:40;;;;;;;5.57;1.73;;;22.80;99.90;;;;;;4160795;28;20067;-85
2022/07/21 07:00:02;;;;;;;1.67;1.58;;;23.00;99.90;;;;;;4146165;28;21005;-85
2022/07/21 07:02:23;;;;;;;3.17;2.55;;;23.20;99.90;;;;;;4145806;28;20638;-85
2022/07/21 07:04:43;;;;;;;3.53;2.08;;;23.20;99.90;;;;;;4145713;28;20474;-85
2022/07/21 07:07:06;;;;;;;2.70;1.75;;;23.20;99.90;;;;;;4145507;28;20049;-85
2022/07/21 07:09:26;;;;;;;2.35;1.90;;;23.20;99.90;;;;;;4162142;28;20104;-85
2022/07/21 07:11:47;;;;;;;4.50;1.60;;;23.40;99.90;;;;;;4148510;28;20044;-85
2022/07/21 07:14:28;;;;;;;4.18;2.00;;;23.60;99.90;;;;;;4163449;28;20404;-85
2022/07/21 07:16:49;;;;;;;2.67;1.60;;;24.10;99.90;;;;;;4148521;28;20048;-85
2022/07/21 07:19:10;;;;;;;3.15;1.38;;;23.90;99.90;;;;;;4158768;28;20048;-85
2022/07/21 07:21:31;;;;;;;1.60;1.50;;;24.10;99.90;;;;;;4148807;28;20093;-85
2022/07/21 07:23:51;;;;;;;5.93;1.40;;;24.40;99.90;;;;;;4148041;28;20057;-84
2022/07/21 07:26:12;;;;;;;2.08;1.65;;;24.40;99.90;;;;;;4163315;28;20041;-84
2022/07/21 07:28:35;;;;;;;3.47;2.13;;;24.80;99.90;;;;;;4148149;28;20048;-85
2022/07/21 07:30:56;;;;;;;2.65;2.05;;;25.00;99.90;;;;;;4148531;28;20066;-84
2022/07/21 07:33:16;;;;;;;2.08;1.98;;;25.10;99.90;;;;;;4148164;28;20552;-85
2022/07/21 07:35:37;;;;;;;3.45;1.45;;;25.30;99.90;;;;;;4148609;28;20053;-85
2022/07/21 07:37:57;;;;;;;3.38;1.58;;;26.00;99.90;;;;;;4163104;28;20056;-85
2022/07/21 07:40:22;;;;;;;4.25;1.73;;;26.20;99.90;;;;;;4163100;28;20535;-85
2022/07/21 07:42:44;;;;;;;3.45;1.77;;;26.30;99.90;;;;;;4148055;28;20169;-84
2022/07/21 07:45:06;;;;;;;2.47;2.30;;;26.20;99.40;;;;;;4147889;28;20456;-84
2022/07/21 07:47:27;;;;;;;;;;;26.70;99.90;;;;;;4163445;28;20445;-85
2022/07/21 07:49:50;;;;;;;1.90;1.52;;;26.40;99.60;;;;;;4148092;28;20081;-85
2022/07/21 07:52:11;;;;;;;1.58;1.48;;;26.80;99.00;;;;;;4163198;28;20044;-85
2022/07/21 07:54:31;;;;;;;2.05;1.95;;;26.70;99.00;;;;;;4147936;28;20611;-85
2022/07/21 07:56:52;;;;;;;6.75;2.00;;;26.80;98.40;;;;;;4148144;28;20437;-85
2022/07/21 07:59:13;;;;;;;5.75;2.17;;;26.90;97.80;;;;;;4162585;28;20408;-85
2022/07/21 08:01:34;;;;;;;3.13;1.83;;;26.70;97.00;;;;;;4162612;28;20075;-85
2022/07/21 08:03:56;;;;;;;3.17;2.35;;;26.50;97.00;;;;;;4163006;28;20092;-85
2022/07/21 08:06:17;;;;;;;2.17;2.08;;;26.60;97.10;;;;;;4148063;28;20044;-85
2022/07/21 08:08:38;;;;;;;2.25;2.15;;;27.00;97.30;;;;;;4147758;28;20112;-85
2022/07/21 08:10:59;;;;;;;2.30;2.15;;;27.30;96.80;;;;;;4131111;28;20572;-85
2022/07/21 08:13:19;;;;;;;2.42;2.20;;;27.40;95.90;;;;;;4142970;28;20126;-85
2022/07/21 08:15:42;;;;;;;2.15;1.77;;;27.60;96.70;;;;;;4147319;28;20056;-85
2022/07/21 08:18:03;;;;;;;2.60;2.10;;;27.50;95.30;;;;;;4161911;28;20129;-85
2022/07/21 08:20:25;;;;;;;4.00;1.75;;;27.40;95.00;;;;;;4144754;28;20129;-85
2022/07/21 08:22:46;;;;;;;1.90;1.80;;;27.70;95.60;;;;;;4141331;28;20153;-85
2022/07/21 08:25:06;;;;;;;2.72;2.33;;;28.30;95.70;;;;;;4147456;28;20105;-85
2022/07/21 08:27:27;;;;;;;4.88;1.92;;;28.40;95.30;;;;;;4147597;28;20197;-85
2022/07/21 08:29:49;;;;;;;2.47;2.13;;;28.40;93.60;;;;;;4161966;28;20563;-85
2022/07/21 08:32:10;;;;;;;2.75;2.28;;;28.40;93.60;;;;;;4162250;28;20565;-85
2022/07/21 08:34:31;;;;;;;6.93;2.53;;;28.40;93.80;;;;;;4147513;28;20052;-85
2022/07/21 08:36:52;;;;;;;3.28;2.13;;;28.50;92.80;;;;;;4147160;28;20048;-85
2022/07/21 08:39:12;;;;;;;1.70;1.60;;;28.60;94.80;;;;;;4162019;28;20141;-85
2022/07/21 08:41:36;;;;;;;3.85;1.80;;;29.10;92.70;;;;;;4161812;28;20116;-85
2022/07/21 08:43:56;;;;;;;2.75;2.03;;;28.90;91.90;;;;;;4161941;28;20084;-85
2022/07/21 08:46:21;;;;;;;2.20;1.23;;;29.00;92.90;;;;;;4147453;28;20147;-85
2022/07/21 08:48:42;;;;;;;2.38;1.98;;;29.50;91.50;;;;;;4146782;28;20127;-85
2022/07/21 08:51:03;;;;;;;2.70;2.00;;;29.60;92.10;;;;;;4162091;28;20125;-85
2022/07/21 08:53:24;;;;;;;5.00;1.95;;;29.60;90.50;;;;;;4147213;28;20068;-85
2022/07/21 08:55:45;;;;;;;3.73;1.93;;;29.50;91.90;;;;;;4161504;28;20124;-85
2022/07/21 08:58:11;;;;;;;1.20;1.10;;;29.60;92.10;;;;;;4147183;28;20060;-85
2022/07/21 09:00:34;;;;;;;1.95;1.85;;;29.80;91.40;;;;;;4146906;28;20105;-85
2022/07/21 09:03:13;;;;;;;5.00;2.58;;;29.80;91.00;;;;;;4161705;28;20072;-85
2022/07/21 09:05:34;;;;;;;3.13;2.92;;;30.30;91.20;;;;;;4130705;28;20652;-85
2022/07/21 09:07:57;;;;;;;6.80;2.42;;;30.50;89.00;;;;;;4159499;28;20132;-85
2022/07/21 09:10:24;;;;;;;2.42;2.22;;;30.60;89.80;;;;;;4161347;28;20072;-85
2022/07/21 09:12:54;;;;;;;5.18;3.88;;;30.70;87.10;;;;;;4132340;28;20058;-85
2022/07/21 09:15:18;;;;;;;6.70;6.20;;;30.50;85.20;;;;;;4146373;28;20056;-86
2022/07/21 09:17:39;;;;;;;6.78;5.45;;;31.00;85.70;;;;;;4161177;28;20095;-85
2022/07/21 09:20:24;;;;;;;6.80;6.25;;;31.30;87.20;;;;;;4161166;28;20459;-85
2022/07/21 09:23:05;;;;;;;8.38;7.70;;;31.70;87.40;;;;;;4161310;28;20051;-85
2022/07/21 09:25:39;;;;;;;6.10;5.85;;;31.80;85.30;;;;;;4161396;28;20539;-85
2022/07/21 09:28:11;;;;;;;6.88;6.40;;;31.50;82.60;;;;;;4130511;28;20599;-85
2022/07/21 09:30:54;;;;;;;9.73;9.00;;;31.40;85.40;;;;;;4145462;28;20048;-85
2022/07/21 09:33:20;;;;;;;8.15;7.85;;;31.40;82.50;;;;;;4157784;28;20052;-85
2022/07/21 09:35:59;;;;;;;7.03;6.70;;;31.60;86.30;;;;;;4161279;28;20507;-85
2022/07/21 09:38:20;;;;;;;7.60;6.85;;;31.60;82.10;;;;;;4161540;28;20060;-85
2022/07/21 09:40:47;;;;;;;7.40;6.80;;;31.80;82.70;;;;;;4146647;28;20542;-85
2022/07/21 09:43:08;;;;;;;6.80;6.15;;;31.80;81.70;;;;;;4161207;28;20072;-86
2022/07/21 09:45:37;;;;;;;12.35;11.52;;;31.80;82.60;;;;;;4146293;28;20535;-85
2022/07/21 09:47:57;;;;;;;11.05;10.10;;;31.90;82.00;;;;;;4145528;28;20133;-86
2022/07/21 09:50:38;;;;;;;20.88;19.27;;;32.60;85.70;;;;;;4142415;28;20126;-85
2022/07/21 09:52:59;;;;;;;18.77;17.50;;;32.60;77.20;;;;;;4152583;28;20048;-86
2022/07/21 09:55:20;;;;;;;16.63;15.52;;;32.50;80.30;;;;;;4054620;28;310013;-85
2022/07/21 09:57:41;;;;;;;21.52;19.92;;;32.60;80.70;;;;;;4144696;28;20089;-85
2022/07/21 10:00:07;;;;;;;16.63;15.48;;;32.90;81.70;;;;;;4110137;28;324850;-85
2022/07/21 10:04:23;;;;;;;25.98;24.02;;;33.00;80.70;;;;;;4183871;27;20492;-58
2022/07/21 10:06:46;;;;;;;32.55;29.80;;;33.00;80.20;;;;;;4163749;28;20112;-57
2022/07/21 10:08:49;;;;;;;35.53;32.63;;;33.40;74.40;;;;;;4144406;28;20053;-57
2022/07/21 10:10:52;;;;;;;38.47;35.20;;;33.50;78.90;;;;;;3998567;28;338798;-57
2022/07/21 10:13:14;;;;;;;22.38;20.75;;;33.60;75.70;;;;;;4047079;28;20042;-59
2022/07/21 10:15:18;;;;;;;18.48;17.20;;;33.40;74.30;;;;;;4103061;28;332360;-59
2022/07/21 10:17:21;;;;;;;16.73;15.73;;;33.40;77.20;;;;;;4144080;28;20108;-57
2022/07/21 10:20:36;;;;;;;18.08;16.60;;;33.50;76.40;;;;;;4182927;28;20400;-57
2022/07/21 10:23:26;;;;;;;18.17;17.05;;;33.40;76.00;;;;;;4087689;28;346781;-57
2022/07/21 10:25:49;;;;;;;18.10;17.02;;;33.70;75.80;;;;;;4134889;28;20061;-57
2022/07/21 10:28:14;;;;;;;18.88;17.75;;;34.10;78.60;;;;;;4125139;28;20110;-57
2022/07/21 10:30:47;;;;;;;20.42;18.88;;;33.70;74.10;;;;;;4028447;28;333323;-57
2022/07/21 10:33:08;;;;;;;18.15;17.00;;;34.20;80.40;;;;;;4120154;28;20066;-58
2022/07/21 10:35:30;;;;;;;19.17;17.43;;;34.20;77.00;;;;;;4126263;28;20085;-57
2022/07/21 10:41:40;;;;;;;16.25;15.25;;;34.40;75.40;;;;;;4140690;28;20166;-58
2022/07/21 10:43:43;;;;;;;17.15;14.88;;;34.40;76.10;;;;;;4136502;28;20097;-57
2022/07/21 10:45:45;;;;;;;15.10;13.85;;;34.40;73.80;;;;;;4135646;28;20395;-57
2022/07/21 10:47:47;;;;;;;16.17;14.80;;;34.30;72.90;;;;;;4147301;28;20058;-57
2022/07/21 10:49:51;;;;;;;16.90;15.82;;;34.60;74.70;;;;;;4139879;28;20124;-58
2022/07/21 10:51:52;;;;;;;18.55;17.45;;;35.00;73.20;;;;;;4136325;28;20066;-57
2022/07/21 10:54:17;;;;;;;17.88;16.67;;;34.80;72.00;;;;;;4134728;28;20042;-57
2022/07/21 10:56:33;;;;;;;16.73;15.70;;;34.50;72.60;;;;;;4138794;28;20038;-57
2022/07/21 10:58:40;;;;;;;14.48;13.48;;;34.30;70.70;;;;;;4137340;28;20588;-57
2022/07/21 11:01:04;;;;;;;12.75;12.05;;;34.50;71.90;;;;;;4139234;28;20343;-57
2022/07/21 11:03:34;;;;;;;13.55;12.52;;;34.60;71.50;;;;;;4138970;28;20574;-57
2022/07/21 11:05:36;;;;;;;12.38;11.50;;;34.50;70.00;;;;;;4132273;28;20172;-56
2022/07/21 11:08:12;;;;;;;12.45;11.93;;;34.70;70.80;;;;;;4139835;28;20433;-58
2022/07/21 11:10:17;;;;;;;11.63;10.90;;;34.90;69.70;;;;;;4125983;28;20046;-56
2022/07/21 11:12:19;;;;;;;11.50;11.00;;;35.30;69.00;;;;;;4138687;28;20053;-58
2022/07/21 11:14:41;;;;;;;11.10;10.50;;;35.40;68.80;;;;;;4136673;28;20046;-57
2022/07/21 11:16:49;;;;;;;12.82;11.98;;;35.60;74.00;;;;;;4125370;28;20482;-58
2022/07/21 11:18:51;;;;;;;13.52;12.57;;;35.10;70.40;;;;;;4141229;28;20069;-59
2022/07/21 11:21:12;;;;;;;12.73;11.85;;;35.40;72.30;;;;;;4133745;28;20042;-57
2022/07/21 11:23:14;;;;;;;13.43;12.55;;;35.60;72.60;;;;;;4137514;28;20088;-59
2022/07/21 11:25:16;;;;;;;11.63;10.70;;;36.10;73.60;;;;;;4125630;28;20039;-58
2022/07/21 11:27:21;;;;;;;11.88;11.18;;;36.20;71.70;;;;;;4130586;28;20049;-58
2022/07/21 11:29:25;;;;;;;11.95;11.30;;;36.10;65.90;;;;;;4141313;28;20465;-57
2022/07/21 11:31:27;;;;;;;13.38;12.38;;;35.70;69.00;;;;;;4140298;28;20057;-58
2022/07/21 11:33:30;;;;;;;12.88;11.88;;;35.60;69.10;;;;;;4136485;28;20105;-58
2022/07/21 11:35:37;;;;;;;15.02;13.77;;;35.40;65.40;;;;;;4125245;28;20391;-57
2022/07/21 11:37:45;;;;;;;14.98;13.80;;;35.40;66.90;;;;;;4133263;28;20523;-57
2022/07/21 11:39:47;;;;;;;13.20;12.40;;;35.70;70.10;;;;;;4129227;28;20046;-58
2022/07/21 11:41:51;;;;;;;12.32;11.45;;;35.90;67.40;;;;;;4140720;28;20038;-55
2022/07/21 11:43:53;;;;;;;12.38;11.73;;;35.80;66.90;;;;;;4138123;28;20042;-57
2022/07/21 11:45:55;;;;;;;13.85;12.93;;;35.90;65.90;;;;;;4140791;28;20048;-55
2022/07/21 11:47:58;;;;;;;11.85;11.35;;;36.50;68.50;;;;;;4138356;28;20093;-56
2022/07/21 11:50:03;;;;;;;10.93;10.43;;;36.90;65.90;;;;;;4141237;28;20042;-55
2022/07/21 11:52:09;;;;;;;10.88;10.38;;;36.40;64.50;;;;;;4134450;28;20093;-56
2022/07/21 11:54:20;;;;;;;11.45;10.48;;;36.40;67.30;;;;;;4130376;28;20070;-56
2022/07/21 11:56:22;;;;;;;10.32;9.45;;;36.70;67.60;;;;;;4124032;28;20036;-56
2022/07/21 11:58:24;;;;;;;10.00;9.55;;;36.90;63.20;;;;;;4125007;28;20045;-56
2022/07/21 12:00:27;;;;;;;9.68;9.27;;;37.00;63.20;;;;;;4121469;28;20046;-56
2022/07/21 12:02:30;;;;;;;10.18;9.73;;;37.10;65.00;;;;;;4127110;28;20034;-55
2022/07/21 12:04:44;;;;;;;10.98;10.27;;;36.70;63.30;;;;;;4116019;28;20042;-55
2022/07/21 12:06:47;;;;;;;10.63;9.80;;;36.40;61.50;;;;;;4122746;28;20418;-55
2022/07/21 12:08:49;;;;;;;11.35;10.52;;;36.60;66.60;;;;;;4129713;28;20046;-56
2022/07/21 12:11:03;;;;;;;10.43;10.02;;;36.40;63.90;;;;;;4129893;28;20517;-56
2022/07/21 12:13:06;;;;;;;10.68;10.18;;;36.40;61.00;;;;;;4129967;28;20486;-56